createdAt,value
2022-07-28T00:03:40.804Z,2.00
2022-07-28T00:13:46.639Z,2.10
2022-07-28T00:23:52.540Z,1.50
2022-07-28T00:34:01.285Z,1.70
2022-07-28T00:44:08.510Z,2.20
2022-07-28T00:54:14.677Z,2.00
2022-07-28T01:04:21.894Z,1.70
2022-07-28T01:14:36.257Z,1.80
2022-07-28T01:24:52.280Z,1.90
2022-07-28T01:35:01.903Z,2.10
2022-07-28T01:45:13.484Z,2.00
2022-07-28T01:55:21.349Z,2.30
2022-07-28T02:05:28.940Z,2.40
2022-07-28T02:15:35.619Z,2.20
2022-07-28T02:25:43.094Z,2.10
2022-07-28T02:35:57.487Z,2.30
2022-07-28T02:46:11.582Z,1.80
2022-07-28T02:56:18.778Z,1.80
2022-07-28T03:06:28.861Z,1.70
2022-07-28T03:16:34.999Z,2.60
2022-07-28T03:26:49.505Z,2.50
2022-07-28T03:37:02.402Z,2.10
2022-07-28T03:47:08.610Z,2.10
2022-07-28T03:57:14.715Z,3.00
2022-07-28T04:07:20.398Z,2.10
2022-07-28T04:17:26.301Z,2.60
2022-07-28T04:27:32.159Z,1.90
2022-07-28T04:37:38.077Z,2.50
2022-07-28T04:47:44.226Z,2.50
2022-07-28T04:57:50.147Z,2.40
2022-07-28T05:07:56.431Z,2.10
2022-07-28T05:28:06.929Z,3.40
2022-07-28T05:38:13.045Z,2.90
2022-07-28T05:48:21.897Z,2.90
2022-07-28T05:58:27.657Z,2.90
2022-07-28T06:08:33.415Z,1.80
2022-07-28T06:18:39.061Z,2.80
2022-07-28T06:28:44.929Z,1.90
2022-07-28T06:38:50.932Z,2.40
2022-07-28T06:48:56.921Z,2.10
2022-07-28T06:59:03.813Z,3.80
2022-07-28T07:09:09.755Z,3.90
2022-07-28T07:19:16.105Z,3.50
2022-07-28T07:29:23.078Z,3.10
2022-07-28T07:39:28.818Z,3.80
2022-07-28T07:49:45.221Z,5.60
2022-07-28T07:59:51.713Z,4.40
2022-07-28T08:09:57.581Z,1.50
2022-07-28T08:20:04.636Z,1.10
2022-07-28T08:30:18.614Z,0.80
2022-07-28T08:40:30.272Z,1.40
2022-07-28T08:50:37.245Z,0.90
2022-07-28T09:10:48.204Z,0.70
2022-07-28T09:20:54.503Z,1.00
2022-07-28T09:31:09.524Z,1.00
2022-07-28T09:41:19.012Z,0.90
2022-07-28T09:51:27.077Z,1.10
2022-07-28T10:01:36.839Z,0.80
2022-07-28T10:11:42.808Z,0.50
2022-07-28T10:21:53.351Z,0.60
2022-07-28T10:32:05.564Z,0.60
2022-07-28T10:42:13.766Z,0.50
2022-07-28T10:52:45.591Z,0.90
2022-07-28T11:02:58.996Z,1.10
2022-07-28T11:13:06.959Z,0.90
2022-07-28T11:23:46.244Z,0.80
2022-07-28T11:33:58.295Z,0.60
2022-07-28T11:44:28.008Z,0.80
2022-07-28T11:54:35.403Z,0.90
2022-07-28T12:04:41.337Z,0.60
2022-07-28T12:14:47.579Z,0.50
2022-07-28T12:24:59.677Z,1.00
2022-07-28T12:35:06.382Z,0.70
2022-07-28T12:45:13.308Z,1.10
2022-07-28T12:55:29.508Z,0.80
2022-07-28T13:05:58.242Z,0.70
2022-07-28T13:16:18.350Z,0.90
2022-07-28T13:26:24.382Z,1.10
2022-07-28T13:36:30.384Z,0.80
2022-07-28T13:46:40.401Z,0.90
2022-07-28T13:57:10.537Z,1.00
2022-07-28T14:07:16.384Z,0.90
2022-07-28T14:17:43.554Z,1.20
2022-07-28T14:27:51.759Z,0.70
2022-07-28T14:38:49.819Z,0.60
2022-07-28T14:48:23.910Z,0.90
2022-07-28T14:58:29.849Z,1.60
2022-07-28T15:08:35.656Z,0.50
2022-07-28T15:18:41.530Z,0.70
2022-07-28T15:28:48.526Z,0.50
2022-07-28T15:38:54.870Z,0.90
2022-07-28T15:49:04.888Z,0.60
2022-07-28T15:59:11.204Z,0.70
2022-07-28T16:09:17.396Z,0.90
2022-07-28T16:19:46.598Z,0.80
2022-07-28T16:29:50.718Z,0.80
2022-07-28T16:39:57.442Z,0.60
2022-07-28T16:50:03.304Z,0.50
2022-07-28T17:00:13.729Z,1.20
2022-07-28T17:10:21.133Z,0.50
2022-07-28T17:20:32.497Z,0.80
2022-07-28T17:30:38.450Z,1.40
2022-07-28T17:40:44.261Z,1.10
2022-07-28T17:50:51.425Z,0.80
2022-07-28T18:01:10.178Z,0.60
2022-07-28T18:11:17.621Z,0.80
2022-07-28T18:21:23.415Z,0.50
2022-07-28T18:31:29.346Z,0.60
2022-07-28T18:41:46.107Z,0.90
2022-07-28T18:51:54.990Z,1.20
2022-07-28T19:02:00.858Z,1.10
2022-07-28T19:12:08.020Z,1.20
2022-07-28T19:22:13.719Z,1.80
2022-07-28T19:32:19.477Z,1.20
2022-07-28T19:42:29.109Z,1.10
2022-07-28T19:52:35.079Z,1.00
2022-07-28T20:02:43.497Z,1.50
2022-07-28T20:12:49.560Z,1.40
2022-07-28T20:22:55.224Z,1.60
2022-07-28T20:33:02.408Z,1.30
2022-07-28T20:43:08.264Z,1.20
2022-07-28T20:53:14.063Z,1.60
2022-07-28T21:03:21.607Z,1.80
2022-07-28T21:13:27.542Z,1.70
2022-07-28T21:23:33.460Z,1.80
2022-07-28T21:33:39.516Z,1.30
2022-07-28T21:43:45.690Z,1.40
2022-07-28T21:53:52.678Z,1.00
2022-07-28T22:03:59.065Z,1.20
2022-07-28T22:14:05.187Z,1.50
2022-07-28T22:24:11.548Z,1.00
2022-07-28T22:34:17.698Z,1.30
2022-07-28T22:44:23.817Z,1.40
2022-07-28T22:54:29.608Z,1.30
2022-07-28T23:04:35.316Z,1.80
2022-07-28T23:14:41.195Z,1.10
2022-07-28T23:24:46.969Z,1.20
2022-07-28T23:34:52.783Z,1.50
2022-07-28T23:44:58.600Z,1.40
2022-07-28T23:55:04.836Z,1.40
